sensor_id;sensor_type;location;lat;lon;timestamp;P1;durP1;ratioP1;P2;durP2;ratioP2
65073;SDS011;52218;51.224;-2.328;2022-08-11T00:02:09;3.50;;;0.75;;
65073;SDS011;52218;51.224;-2.328;2022-08-11T00:05:55;4.15;;;0.60;;
65073;SDS011;52218;51.224;-2.328;2022-08-11T00:09:38;2.67;;;0.60;;
65073;SDS011;52218;51.224;-2.328;2022-08-11T00:13:21;2.85;;;0.80;;
65073;SDS011;52218;51.224;-2.328;2022-08-11T00:17:12;2.05;;;0.73;;
65073;SDS011;52218;51.224;-2.328;2022-08-11T00:20:57;1.83;;;0.60;;
65073;SDS011;52218;51.224;-2.328;2022-08-11T00:24:41;4.70;;;0.93;;
65073;SDS011;52218;51.224;-2.328;2022-08-11T00:28:35;4.18;;;0.60;;
65073;SDS011;52218;51.224;-2.328;2022-08-11T00:32:17;2.58;;;0.88;;
65073;SDS011;52218;51.224;-2.328;2022-08-11T00:35:59;6.65;;;0.80;;
65073;SDS011;52218;51.224;-2.328;2022-08-11T00:39:44;3.15;;;0.77;;
65073;SDS011;52218;51.224;-2.328;2022-08-11T00:48:01;2.55;;;0.85;;
65073;SDS011;52218;51.224;-2.328;2022-08-11T01:41:46;2.42;;;0.68;;
65073;SDS011;52218;51.224;-2.328;2022-08-11T01:50:08;2.78;;;0.70;;
65073;SDS011;52218;51.224;-2.328;2022-08-11T02:06:30;6.63;;;0.90;;
65073;SDS011;52218;51.224;-2.328;2022-08-11T02:10:43;2.33;;;0.70;;
65073;SDS011;52218;51.224;-2.328;2022-08-11T02:15:01;2.97;;;0.73;;
65073;SDS011;52218;51.224;-2.328;2022-08-11T02:19:00;1.98;;;0.70;;
65073;SDS011;52218;51.224;-2.328;2022-08-11T02:23:36;2.72;;;0.80;;
65073;SDS011;52218;51.224;-2.328;2022-08-11T02:28:12;4.15;;;0.70;;
65073;SDS011;52218;51.224;-2.328;2022-08-11T02:36:33;1.92;;;0.70;;
65073;SDS011;52218;51.224;-2.328;2022-08-11T02:40:26;3.20;;;0.85;;
65073;SDS011;52218;51.224;-2.328;2022-08-11T02:53:05;1.58;;;0.70;;
65073;SDS011;52218;51.224;-2.328;2022-08-11T03:01:27;2.53;;;0.70;;
65073;SDS011;52218;51.224;-2.328;2022-08-11T03:05:32;4.05;;;0.70;;
65073;SDS011;52218;51.224;-2.328;2022-08-11T03:09:54;2.72;;;0.60;;
65073;SDS011;52218;51.224;-2.328;2022-08-11T03:18:22;2.00;;;0.77;;
65073;SDS011;52218;51.224;-2.328;2022-08-11T03:22:11;1.60;;;0.60;;
65073;SDS011;52218;51.224;-2.328;2022-08-11T03:26:09;1.88;;;0.70;;
65073;SDS011;52218;51.224;-2.328;2022-08-11T03:30:12;1.50;;;0.70;;
65073;SDS011;52218;51.224;-2.328;2022-08-11T03:33:59;3.65;;;0.80;;
65073;SDS011;52218;51.224;-2.328;2022-08-11T03:37:59;3.83;;;0.80;;
65073;SDS011;52218;51.224;-2.328;2022-08-11T04:02:25;2.40;;;0.80;;
65073;SDS011;52218;51.224;-2.328;2022-08-11T04:06:32;1.63;;;0.70;;
65073;SDS011;52218;51.224;-2.328;2022-08-11T04:39:23;3.05;;;0.95;;
65073;SDS011;52218;51.224;-2.328;2022-08-11T04:56:37;1.98;;;0.98;;
65073;SDS011;52218;51.224;-2.328;2022-08-11T05:00:57;2.15;;;0.95;;
65073;SDS011;52218;51.224;-2.328;2022-08-11T05:22:06;3.50;;;1.27;;
65073;SDS011;52218;51.224;-2.328;2022-08-11T05:26:10;2.03;;;1.20;;
65073;SDS011;52218;51.224;-2.328;2022-08-11T05:30:28;3.20;;;1.20;;
65073;SDS011;52218;51.224;-2.328;2022-08-11T05:34:32;2.35;;;1.02;;
65073;SDS011;52218;51.224;-2.328;2022-08-11T05:38:35;2.65;;;1.13;;
65073;SDS011;52218;51.224;-2.328;2022-08-11T05:42:38;3.30;;;0.80;;
65073;SDS011;52218;51.224;-2.328;2022-08-11T05:46:47;3.58;;;1.00;;
65073;SDS011;52218;51.224;-2.328;2022-08-11T05:50:49;1.80;;;0.80;;
65073;SDS011;52218;51.224;-2.328;2022-08-11T05:55:02;3.95;;;0.98;;
65073;SDS011;52218;51.224;-2.328;2022-08-11T05:59:03;3.45;;;1.05;;
65073;SDS011;52218;51.224;-2.328;2022-08-11T06:02:53;3.42;;;1.20;;
65073;SDS011;52218;51.224;-2.328;2022-08-11T06:06:38;2.95;;;1.20;;
65073;SDS011;52218;51.224;-2.328;2022-08-11T06:10:41;5.05;;;1.67;;
65073;SDS011;52218;51.224;-2.328;2022-08-11T06:14:24;4.40;;;1.45;;
65073;SDS011;52218;51.224;-2.328;2022-08-11T06:18:09;4.25;;;1.40;;
65073;SDS011;52218;51.224;-2.328;2022-08-11T06:21:52;5.80;;;1.50;;
65073;SDS011;52218;51.224;-2.328;2022-08-11T06:25:35;4.82;;;1.25;;
65073;SDS011;52218;51.224;-2.328;2022-08-11T06:29:17;3.10;;;1.10;;
65073;SDS011;52218;51.224;-2.328;2022-08-11T06:33:18;4.15;;;1.20;;
65073;SDS011;52218;51.224;-2.328;2022-08-11T06:45:28;3.15;;;1.35;;
65073;SDS011;52218;51.224;-2.328;2022-08-11T06:49:12;3.05;;;1.27;;
65073;SDS011;52218;51.224;-2.328;2022-08-11T06:53:14;2.13;;;1.25;;
65073;SDS011;52218;51.224;-2.328;2022-08-11T06:56:59;2.78;;;1.30;;
65073;SDS011;52218;51.224;-2.328;2022-08-11T07:01:12;3.72;;;1.25;;
65073;SDS011;52218;51.224;-2.328;2022-08-11T07:05:00;2.88;;;1.20;;
65073;SDS011;52218;51.224;-2.328;2022-08-11T07:09:17;5.20;;;1.40;;
65073;SDS011;52218;51.224;-2.328;2022-08-11T07:13:40;4.07;;;1.30;;
65073;SDS011;52218;51.224;-2.328;2022-08-11T07:17:49;6.97;;;1.48;;
65073;SDS011;52218;51.224;-2.328;2022-08-11T07:21:54;3.42;;;1.33;;
65073;SDS011;52218;51.224;-2.328;2022-08-11T07:25:56;4.90;;;1.65;;
65073;SDS011;52218;51.224;-2.328;2022-08-11T07:30:00;2.95;;;1.27;;
65073;SDS011;52218;51.224;-2.328;2022-08-11T07:33:46;2.45;;;1.27;;
65073;SDS011;52218;51.224;-2.328;2022-08-11T07:37:52;3.67;;;1.13;;
65073;SDS011;52218;51.224;-2.328;2022-08-11T07:41:47;3.28;;;1.20;;
65073;SDS011;52218;51.224;-2.328;2022-08-11T07:45:31;4.90;;;1.25;;
65073;SDS011;52218;51.224;-2.328;2022-08-11T07:49:36;2.58;;;1.20;;
65073;SDS011;52218;51.224;-2.328;2022-08-11T07:53:38;3.10;;;0.95;;
65073;SDS011;52218;51.224;-2.328;2022-08-11T07:57:38;2.47;;;1.00;;
65073;SDS011;52218;51.224;-2.328;2022-08-11T08:02:00;3.35;;;1.20;;
65073;SDS011;52218;51.224;-2.328;2022-08-11T08:06:01;4.55;;;1.10;;
65073;SDS011;52218;51.224;-2.328;2022-08-11T08:10:16;3.40;;;1.00;;
65073;SDS011;52218;51.224;-2.328;2022-08-11T08:14:18;1.92;;;0.80;;
65073;SDS011;52218;51.224;-2.328;2022-08-11T08:18:19;3.03;;;0.90;;
65073;SDS011;52218;51.224;-2.328;2022-08-11T08:22:07;3.25;;;0.82;;
65073;SDS011;52218;51.224;-2.328;2022-08-11T08:26:11;1.40;;;0.70;;
65073;SDS011;52218;51.224;-2.328;2022-08-11T08:30:13;1.95;;;0.80;;
65073;SDS011;52218;51.224;-2.328;2022-08-11T08:34:14;1.63;;;0.70;;
65073;SDS011;52218;51.224;-2.328;2022-08-11T08:37:57;2.35;;;0.80;;
65073;SDS011;52218;51.224;-2.328;2022-08-11T08:41:41;1.77;;;0.80;;
65073;SDS011;52218;51.224;-2.328;2022-08-11T08:45:25;2.67;;;0.70;;
65073;SDS011;52218;51.224;-2.328;2022-08-11T08:49:08;2.75;;;0.80;;
65073;SDS011;52218;51.224;-2.328;2022-08-11T08:52:57;2.80;;;1.10;;
65073;SDS011;52218;51.224;-2.328;2022-08-11T08:56:45;2.38;;;1.00;;
65073;SDS011;52218;51.224;-2.328;2022-08-11T09:00:37;3.85;;;0.90;;
65073;SDS011;52218;51.224;-2.328;2022-08-11T09:04:24;3.80;;;0.80;;
65073;SDS011;52218;51.224;-2.328;2022-08-11T09:08:07;1.85;;;0.70;;
65073;SDS011;52218;51.224;-2.328;2022-08-11T09:11:51;2.45;;;0.63;;
65073;SDS011;52218;51.224;-2.328;2022-08-11T09:15:33;2.38;;;0.80;;
65073;SDS011;52218;51.224;-2.328;2022-08-11T09:19:18;1.42;;;0.70;;
65073;SDS011;52218;51.224;-2.328;2022-08-11T09:23:05;2.53;;;0.60;;
65073;SDS011;52218;51.224;-2.328;2022-08-11T09:27:27;1.83;;;0.63;;
65073;SDS011;52218;51.224;-2.328;2022-08-11T09:31:10;2.42;;;0.70;;
65073;SDS011;52218;51.224;-2.328;2022-08-11T09:34:53;1.25;;;0.50;;
65073;SDS011;52218;51.224;-2.328;2022-08-11T09:38:37;1.60;;;0.70;;
65073;SDS011;52218;51.224;-2.328;2022-08-11T09:42:38;2.28;;;1.00;;
65073;SDS011;52218;51.224;-2.328;2022-08-11T09:46:39;4.13;;;0.70;;
65073;SDS011;52218;51.224;-2.328;2022-08-11T09:50:21;1.77;;;0.70;;
65073;SDS011;52218;51.224;-2.328;2022-08-11T09:54:03;3.05;;;0.60;;
65073;SDS011;52218;51.224;-2.328;2022-08-11T09:57:46;3.53;;;0.82;;
65073;SDS011;52218;51.224;-2.328;2022-08-11T10:01:56;2.03;;;0.80;;
65073;SDS011;52218;51.224;-2.328;2022-08-11T10:05:46;2.15;;;0.73;;
65073;SDS011;52218;51.224;-2.328;2022-08-11T10:09:54;1.85;;;0.60;;
65073;SDS011;52218;51.224;-2.328;2022-08-11T10:13:40;3.28;;;0.60;;
65073;SDS011;52218;51.224;-2.328;2022-08-11T10:18:08;2.50;;;0.70;;
65073;SDS011;52218;51.224;-2.328;2022-08-11T10:22:21;1.95;;;0.50;;
65073;SDS011;52218;51.224;-2.328;2022-08-11T10:26:23;3.72;;;0.50;;
65073;SDS011;52218;51.224;-2.328;2022-08-11T10:30:28;2.13;;;0.40;;
65073;SDS011;52218;51.224;-2.328;2022-08-11T10:34:29;1.85;;;0.40;;
65073;SDS011;52218;51.224;-2.328;2022-08-11T10:38:12;2.70;;;0.47;;
65073;SDS011;52218;51.224;-2.328;2022-08-11T10:41:56;2.67;;;0.52;;
65073;SDS011;52218;51.224;-2.328;2022-08-11T10:46:15;1.38;;;0.40;;
65073;SDS011;52218;51.224;-2.328;2022-08-11T10:50:16;1.52;;;0.63;;
65073;SDS011;52218;51.224;-2.328;2022-08-11T10:54:16;2.38;;;0.30;;
65073;SDS011;52218;51.224;-2.328;2022-08-11T10:58:17;2.85;;;0.50;;
65073;SDS011;52218;51.224;-2.328;2022-08-11T11:02:19;0.95;;;0.40;;
65073;SDS011;52218;51.224;-2.328;2022-08-11T11:06:45;1.90;;;0.45;;
65073;SDS011;52218;51.224;-2.328;2022-08-11T11:10:10;3.42;;;0.50;;
65073;SDS011;52218;51.224;-2.328;2022-08-11T11:13:52;1.67;;;0.40;;
65073;SDS011;52218;51.224;-2.328;2022-08-11T11:18:05;1.08;;;0.30;;
65073;SDS011;52218;51.224;-2.328;2022-08-11T11:21:54;1.13;;;0.32;;
65073;SDS011;52218;51.224;-2.328;2022-08-11T11:30:09;0.95;;;0.40;;
65073;SDS011;52218;51.224;-2.328;2022-08-11T11:37:52;1.00;;;0.40;;
65073;SDS011;52218;51.224;-2.328;2022-08-11T11:41:44;2.50;;;0.43;;
65073;SDS011;52218;51.224;-2.328;2022-08-11T11:45:27;1.55;;;0.40;;
65073;SDS011;52218;51.224;-2.328;2022-08-11T11:49:10;2.80;;;0.32;;
65073;SDS011;52218;51.224;-2.328;2022-08-11T11:52:57;1.30;;;0.40;;
65073;SDS011;52218;51.224;-2.328;2022-08-11T11:56:42;2.05;;;0.40;;
65073;SDS011;52218;51.224;-2.328;2022-08-11T12:00:25;1.13;;;0.30;;
65073;SDS011;52218;51.224;-2.328;2022-08-11T12:04:46;1.30;;;0.28;;
65073;SDS011;52218;51.224;-2.328;2022-08-11T12:08:28;0.95;;;0.40;;
65073;SDS011;52218;51.224;-2.328;2022-08-11T12:12:11;1.35;;;0.30;;
65073;SDS011;52218;51.224;-2.328;2022-08-11T12:16:13;0.80;;;0.30;;
65073;SDS011;52218;51.224;-2.328;2022-08-11T12:20:16;1.00;;;0.20;;
65073;SDS011;52218;51.224;-2.328;2022-08-11T12:24:14;2.13;;;0.20;;
65073;SDS011;52218;51.224;-2.328;2022-08-11T12:28:14;2.03;;;0.32;;
65073;SDS011;52218;51.224;-2.328;2022-08-11T12:31:57;3.33;;;0.30;;
65073;SDS011;52218;51.224;-2.328;2022-08-11T12:35:40;1.65;;;0.30;;
65073;SDS011;52218;51.224;-2.328;2022-08-11T12:39:47;0.68;;;0.20;;
65073;SDS011;52218;51.224;-2.328;2022-08-11T12:44:10;1.55;;;0.45;;
65073;SDS011;52218;51.224;-2.328;2022-08-11T12:48:20;0.98;;;0.30;;
65073;SDS011;52218;51.224;-2.328;2022-08-11T12:52:43;1.00;;;0.30;;
65073;SDS011;52218;51.224;-2.328;2022-08-11T12:56:31;0.73;;;0.30;;
65073;SDS011;52218;51.224;-2.328;2022-08-11T13:00:37;1.73;;;0.30;;
65073;SDS011;52218;51.224;-2.328;2022-08-11T13:04:39;1.05;;;0.32;;
65073;SDS011;52218;51.224;-2.328;2022-08-11T13:08:41;2.47;;;0.20;;
65073;SDS011;52218;51.224;-2.328;2022-08-11T13:12:25;3.08;;;0.35;;
65073;SDS011;52218;51.224;-2.328;2022-08-11T13:16:29;1.17;;;0.30;;
65073;SDS011;52218;51.224;-2.328;2022-08-11T13:20:34;0.57;;;0.20;;
65073;SDS011;52218;51.224;-2.328;2022-08-11T13:24:16;2.70;;;0.30;;
65073;SDS011;52218;51.224;-2.328;2022-08-11T13:27:59;0.97;;;0.30;;
65073;SDS011;52218;51.224;-2.328;2022-08-11T13:31:43;2.00;;;0.30;;
65073;SDS011;52218;51.224;-2.328;2022-08-11T13:35:27;0.82;;;0.40;;
65073;SDS011;52218;51.224;-2.328;2022-08-11T13:39:12;2.25;;;0.30;;
65073;SDS011;52218;51.224;-2.328;2022-08-11T13:42:54;2.90;;;0.40;;
65073;SDS011;52218;51.224;-2.328;2022-08-11T13:46:39;1.17;;;0.32;;
65073;SDS011;52218;51.224;-2.328;2022-08-11T13:50:25;1.00;;;0.30;;
65073;SDS011;52218;51.224;-2.328;2022-08-11T13:54:29;1.52;;;0.20;;
65073;SDS011;52218;51.224;-2.328;2022-08-11T13:58:12;1.75;;;0.32;;
65073;SDS011;52218;51.224;-2.328;2022-08-11T14:02:15;0.98;;;0.30;;
65073;SDS011;52218;51.224;-2.328;2022-08-11T14:06:09;3.63;;;0.23;;
65073;SDS011;52218;51.224;-2.328;2022-08-11T14:09:56;3.40;;;0.20;;
65073;SDS011;52218;51.224;-2.328;2022-08-11T14:13:40;1.83;;;0.30;;
65073;SDS011;52218;51.224;-2.328;2022-08-11T14:17:29;1.10;;;0.30;;
65073;SDS011;52218;51.224;-2.328;2022-08-11T14:21:29;2.20;;;0.50;;
65073;SDS011;52218;51.224;-2.328;2022-08-11T14:25:35;1.75;;;0.30;;
65073;SDS011;52218;51.224;-2.328;2022-08-11T14:29:41;2.63;;;0.30;;
65073;SDS011;52218;51.224;-2.328;2022-08-11T14:33:32;2.45;;;0.40;;
65073;SDS011;52218;51.224;-2.328;2022-08-11T14:37:35;1.33;;;0.30;;
65073;SDS011;52218;51.224;-2.328;2022-08-11T14:41:21;1.65;;;0.30;;
65073;SDS011;52218;51.224;-2.328;2022-08-11T14:45:46;0.52;;;0.30;;
65073;SDS011;52218;51.224;-2.328;2022-08-11T14:49:47;1.00;;;0.30;;
65073;SDS011;52218;51.224;-2.328;2022-08-11T14:53:52;1.60;;;0.30;;
65073;SDS011;52218;51.224;-2.328;2022-08-11T14:57:54;0.30;;;0.20;;
65073;SDS011;52218;51.224;-2.328;2022-08-11T15:01:37;4.57;;;0.52;;
65073;SDS011;52218;51.224;-2.328;2022-08-11T15:05:46;3.60;;;0.50;;
65073;SDS011;52218;51.224;-2.328;2022-08-11T15:09:39;2.53;;;0.40;;
65073;SDS011;52218;51.224;-2.328;2022-08-11T15:13:44;1.23;;;0.30;;
65073;SDS011;52218;51.224;-2.328;2022-08-11T15:17:26;1.27;;;0.22;;
65073;SDS011;52218;51.224;-2.328;2022-08-11T15:21:23;2.28;;;0.20;;
65073;SDS011;52218;51.224;-2.328;2022-08-11T15:25:23;4.82;;;0.60;;
65073;SDS011;52218;51.224;-2.328;2022-08-11T15:29:07;2.13;;;0.30;;
65073;SDS011;52218;51.224;-2.328;2022-08-11T15:33:10;0.45;;;0.20;;
65073;SDS011;52218;51.224;-2.328;2022-08-11T15:37:14;0.80;;;0.23;;
65073;SDS011;52218;51.224;-2.328;2022-08-11T15:41:08;2.75;;;0.30;;
65073;SDS011;52218;51.224;-2.328;2022-08-11T15:49:21;0.98;;;0.30;;
65073;SDS011;52218;51.224;-2.328;2022-08-11T15:53:31;2.20;;;0.32;;
65073;SDS011;52218;51.224;-2.328;2022-08-11T15:57:18;0.60;;;0.30;;
65073;SDS011;52218;51.224;-2.328;2022-08-11T16:01:20;2.08;;;0.30;;
65073;SDS011;52218;51.224;-2.328;2022-08-11T16:05:23;2.38;;;0.40;;
65073;SDS011;52218;51.224;-2.328;2022-08-11T16:09:31;3.70;;;0.50;;
65073;SDS011;52218;51.224;-2.328;2022-08-11T16:13:32;0.95;;;0.30;;
65073;SDS011;52218;51.224;-2.328;2022-08-11T16:17:17;2.30;;;0.30;;
65073;SDS011;52218;51.224;-2.328;2022-08-11T16:21:02;1.83;;;0.28;;
65073;SDS011;52218;51.224;-2.328;2022-08-11T16:24:44;0.55;;;0.30;;
65073;SDS011;52218;51.224;-2.328;2022-08-11T16:28:50;0.75;;;0.30;;
65073;SDS011;52218;51.224;-2.328;2022-08-11T16:32:35;1.17;;;0.40;;
65073;SDS011;52218;51.224;-2.328;2022-08-11T16:36:22;1.52;;;0.40;;
65073;SDS011;52218;51.224;-2.328;2022-08-11T16:40:24;3.15;;;0.45;;
65073;SDS011;52218;51.224;-2.328;2022-08-11T16:44:10;0.73;;;0.40;;
65073;SDS011;52218;51.224;-2.328;2022-08-11T16:48:18;2.22;;;0.40;;
65073;SDS011;52218;51.224;-2.328;2022-08-11T16:52:18;1.33;;;0.30;;
65073;SDS011;52218;51.224;-2.328;2022-08-11T16:56:01;1.40;;;0.47;;
65073;SDS011;52218;51.224;-2.328;2022-08-11T16:59:44;4.00;;;0.40;;
65073;SDS011;52218;51.224;-2.328;2022-08-11T17:03:28;0.60;;;0.40;;
65073;SDS011;52218;51.224;-2.328;2022-08-11T17:07:32;0.40;;;0.22;;
65073;SDS011;52218;51.224;-2.328;2022-08-11T17:11:43;3.80;;;0.52;;
65073;SDS011;52218;51.224;-2.328;2022-08-11T17:15:49;2.03;;;0.30;;
65073;SDS011;52218;51.224;-2.328;2022-08-11T17:19:49;0.75;;;0.35;;
65073;SDS011;52218;51.224;-2.328;2022-08-11T17:27:39;2.17;;;0.47;;
65073;SDS011;52218;51.224;-2.328;2022-08-11T17:31:23;2.10;;;0.40;;
65073;SDS011;52218;51.224;-2.328;2022-08-11T17:35:27;1.95;;;0.85;;
65073;SDS011;52218;51.224;-2.328;2022-08-11T17:39:12;2.28;;;0.55;;
65073;SDS011;52218;51.224;-2.328;2022-08-11T17:42:55;1.35;;;0.50;;
65073;SDS011;52218;51.224;-2.328;2022-08-11T17:46:57;4.60;;;0.50;;
65073;SDS011;52218;51.224;-2.328;2022-08-11T17:54:48;2.20;;;0.70;;
65073;SDS011;52218;51.224;-2.328;2022-08-11T17:58:53;1.92;;;0.40;;
65073;SDS011;52218;51.224;-2.328;2022-08-11T18:02:57;0.88;;;0.40;;
65073;SDS011;52218;51.224;-2.328;2022-08-11T18:06:59;2.85;;;0.60;;
65073;SDS011;52218;51.224;-2.328;2022-08-11T18:10:41;1.83;;;0.40;;
65073;SDS011;52218;51.224;-2.328;2022-08-11T18:14:47;1.77;;;0.38;;
65073;SDS011;52218;51.224;-2.328;2022-08-11T18:18:50;1.95;;;0.50;;
65073;SDS011;52218;51.224;-2.328;2022-08-11T18:22:52;3.85;;;0.40;;
65073;SDS011;52218;51.224;-2.328;2022-08-11T18:26:55;2.95;;;0.40;;
65073;SDS011;52218;51.224;-2.328;2022-08-11T18:31:02;1.30;;;0.55;;
65073;SDS011;52218;51.224;-2.328;2022-08-11T18:35:04;1.05;;;0.40;;
65073;SDS011;52218;51.224;-2.328;2022-08-11T18:39:09;1.45;;;0.40;;
65073;SDS011;52218;51.224;-2.328;2022-08-11T18:43:12;2.33;;;0.50;;
65073;SDS011;52218;51.224;-2.328;2022-08-11T18:47:16;3.65;;;0.45;;
65073;SDS011;52218;51.224;-2.328;2022-08-11T18:51:21;1.85;;;0.50;;
65073;SDS011;52218;51.224;-2.328;2022-08-11T18:55:24;1.95;;;0.40;;
65073;SDS011;52218;51.224;-2.328;2022-08-11T18:59:25;1.00;;;0.40;;
65073;SDS011;52218;51.224;-2.328;2022-08-11T19:03:30;0.88;;;0.28;;
65073;SDS011;52218;51.224;-2.328;2022-08-11T19:07:33;2.15;;;0.50;;
65073;SDS011;52218;51.224;-2.328;2022-08-11T19:11:37;6.60;;;0.63;;
65073;SDS011;52218;51.224;-2.328;2022-08-11T19:15:40;1.88;;;0.60;;
65073;SDS011;52218;51.224;-2.328;2022-08-11T19:19:45;3.60;;;0.60;;
65073;SDS011;52218;51.224;-2.328;2022-08-11T19:23:49;3.42;;;0.70;;
65073;SDS011;52218;51.224;-2.328;2022-08-11T19:27:51;1.38;;;0.40;;
65073;SDS011;52218;51.224;-2.328;2022-08-11T19:31:54;2.40;;;0.50;;
65073;SDS011;52218;51.224;-2.328;2022-08-11T19:35:55;1.73;;;0.47;;
65073;SDS011;52218;51.224;-2.328;2022-08-11T19:39:59;3.63;;;0.70;;
65073;SDS011;52218;51.224;-2.328;2022-08-11T19:44:03;0.82;;;0.45;;
65073;SDS011;52218;51.224;-2.328;2022-08-11T19:48:05;2.00;;;0.50;;
65073;SDS011;52218;51.224;-2.328;2022-08-11T19:52:13;2.05;;;0.50;;
65073;SDS011;52218;51.224;-2.328;2022-08-11T19:56:14;1.77;;;0.63;;
65073;SDS011;52218;51.224;-2.328;2022-08-11T20:00:17;1.77;;;0.57;;
65073;SDS011;52218;51.224;-2.328;2022-08-11T20:04:19;3.40;;;0.60;;
65073;SDS011;52218;51.224;-2.328;2022-08-11T20:08:19;2.00;;;0.60;;
65073;SDS011;52218;51.224;-2.328;2022-08-11T20:12:22;1.77;;;0.50;;
65073;SDS011;52218;51.224;-2.328;2022-08-11T20:16:24;1.67;;;0.50;;
65073;SDS011;52218;51.224;-2.328;2022-08-11T20:20:26;1.25;;;0.55;;
65073;SDS011;52218;51.224;-2.328;2022-08-11T20:24:29;2.78;;;0.60;;
65073;SDS011;52218;51.224;-2.328;2022-08-11T20:28:32;5.22;;;0.80;;
65073;SDS011;52218;51.224;-2.328;2022-08-11T20:32:33;1.88;;;0.50;;
65073;SDS011;52218;51.224;-2.328;2022-08-11T20:36:35;2.55;;;0.57;;
65073;SDS011;52218;51.224;-2.328;2022-08-11T20:40:38;1.30;;;0.50;;
65073;SDS011;52218;51.224;-2.328;2022-08-11T20:44:39;4.13;;;0.70;;
65073;SDS011;52218;51.224;-2.328;2022-08-11T20:48:41;1.02;;;0.60;;
65073;SDS011;52218;51.224;-2.328;2022-08-11T20:52:44;2.97;;;0.70;;
65073;SDS011;52218;51.224;-2.328;2022-08-11T20:56:46;5.40;;;0.77;;
65073;SDS011;52218;51.224;-2.328;2022-08-11T21:00:53;3.20;;;0.80;;
65073;SDS011;52218;51.224;-2.328;2022-08-11T21:05:04;2.05;;;0.70;;
65073;SDS011;52218;51.224;-2.328;2022-08-11T21:09:25;2.55;;;0.70;;
65073;SDS011;52218;51.224;-2.328;2022-08-11T21:13:47;3.33;;;0.77;;
65073;SDS011;52218;51.224;-2.328;2022-08-11T21:17:50;2.88;;;0.82;;
65073;SDS011;52218;51.224;-2.328;2022-08-11T21:22:09;1.63;;;0.60;;
65073;SDS011;52218;51.224;-2.328;2022-08-11T21:26:17;1.88;;;0.70;;
65073;SDS011;52218;51.224;-2.328;2022-08-11T21:30:19;1.70;;;0.80;;
65073;SDS011;52218;51.224;-2.328;2022-08-11T21:34:21;2.10;;;0.77;;
65073;SDS011;52218;51.224;-2.328;2022-08-11T21:38:24;1.13;;;0.60;;
65073;SDS011;52218;51.224;-2.328;2022-08-11T21:42:26;1.30;;;0.75;;
65073;SDS011;52218;51.224;-2.328;2022-08-11T21:46:27;2.08;;;0.90;;
65073;SDS011;52218;51.224;-2.328;2022-08-11T21:50:29;2.10;;;0.90;;
65073;SDS011;52218;51.224;-2.328;2022-08-11T21:54:29;2.20;;;0.93;;
65073;SDS011;52218;51.224;-2.328;2022-08-11T21:58:30;2.42;;;0.85;;
65073;SDS011;52218;51.224;-2.328;2022-08-11T22:02:32;1.77;;;1.00;;
65073;SDS011;52218;51.224;-2.328;2022-08-11T22:06:34;3.53;;;1.00;;
65073;SDS011;52218;51.224;-2.328;2022-08-11T22:10:36;4.13;;;1.15;;
65073;SDS011;52218;51.224;-2.328;2022-08-11T22:14:37;2.42;;;0.90;;
65073;SDS011;52218;51.224;-2.328;2022-08-11T22:18:38;3.22;;;0.85;;
65073;SDS011;52218;51.224;-2.328;2022-08-11T22:22:41;4.07;;;1.00;;
65073;SDS011;52218;51.224;-2.328;2022-08-11T22:26:44;4.10;;;0.90;;
65073;SDS011;52218;51.224;-2.328;2022-08-11T22:30:44;1.50;;;0.90;;
65073;SDS011;52218;51.224;-2.328;2022-08-11T22:34:45;4.72;;;0.85;;
65073;SDS011;52218;51.224;-2.328;2022-08-11T22:38:46;4.82;;;1.10;;
65073;SDS011;52218;51.224;-2.328;2022-08-11T22:42:48;2.58;;;1.10;;
65073;SDS011;52218;51.224;-2.328;2022-08-11T22:46:50;2.65;;;1.00;;
65073;SDS011;52218;51.224;-2.328;2022-08-11T22:50:51;1.38;;;0.98;;
65073;SDS011;52218;51.224;-2.328;2022-08-11T22:54:53;2.75;;;0.93;;
65073;SDS011;52218;51.224;-2.328;2022-08-11T22:58:55;3.45;;;1.08;;
65073;SDS011;52218;51.224;-2.328;2022-08-11T23:02:55;6.45;;;1.10;;
65073;SDS011;52218;51.224;-2.328;2022-08-11T23:07:17;3.03;;;0.90;;
65073;SDS011;52218;51.224;-2.328;2022-08-11T23:11:33;2.17;;;1.05;;
65073;SDS011;52218;51.224;-2.328;2022-08-11T23:15:48;1.50;;;0.90;;
65073;SDS011;52218;51.224;-2.328;2022-08-11T23:19:50;2.95;;;1.10;;
65073;SDS011;52218;51.224;-2.328;2022-08-11T23:24:05;3.65;;;1.00;;
65073;SDS011;52218;51.224;-2.328;2022-08-11T23:28:06;2.95;;;1.00;;
65073;SDS011;52218;51.224;-2.328;2022-08-11T23:32:12;1.95;;;1.10;;
65073;SDS011;52218;51.224;-2.328;2022-08-11T23:36:12;3.20;;;1.20;;
65073;SDS011;52218;51.224;-2.328;2022-08-11T23:40:27;4.60;;;1.17;;
65073;SDS011;52218;51.224;-2.328;2022-08-11T23:44:27;3.67;;;1.13;;
65073;SDS011;52218;51.224;-2.328;2022-08-11T23:48:28;2.20;;;1.08;;
65073;SDS011;52218;51.224;-2.328;2022-08-11T23:52:29;5.00;;;1.20;;
65073;SDS011;52218;51.224;-2.328;2022-08-11T23:56:33;10.50;;;1.25;;
